Time;durP1;ratioP1;P1;durP2;ratioP2;P2;SDS_P1;SDS_P2;PMS_P1;PMS_P2;Temp;Humidity;BMP_temperature;BMP_pressure;BME280_temperature;BME280_humidity;BME280_pressure;Samples;Min_cycle;Max_cycle;Signal;HPM_P1;HPM_P2
2022/07/20 00:02:09;;;;;;;;;;;25.10;50.40;;;;;;5034805;28;19912;-78
2022/07/20 00:04:34;;;;;;;;;;;25.20;50.50;;;;;;5028547;28;19999;-80
2022/07/20 00:07:00;;;;;;;;;;;25.10;50.50;;;;;;5027072;28;19916;-76
2022/07/20 00:12:09;;;;;;;;;;;25.10;50.60;;;;;;5028301;28;20075;-75
2022/07/20 00:14:35;;;;;;;;;;;25.20;50.40;;;;;;5024433;28;20349;-80
2022/07/20 00:17:00;;;;;;;;;;;25.10;50.80;;;;;;5028250;28;19915;-78
2022/07/20 00:19:26;;;;;;;;;;;25.00;50.90;;;;;;5028359;28;20023;-79
2022/07/20 00:21:51;;;;;;;;;;;24.90;51.10;;;;;;5026849;28;19999;-77
2022/07/20 00:24:16;;;;;;;;;;;24.90;51.20;;;;;;5027912;28;19915;-77
2022/07/20 00:26:42;;;;;;;;;;;24.70;51.40;;;;;;5024611;28;19975;-77
2022/07/20 00:29:07;;;;;;;;;;;24.70;51.70;;;;;;5023386;28;19956;-79
2022/07/20 00:31:33;;;;;;;;;;;24.50;52.10;;;;;;5023371;28;20422;-78
2022/07/20 00:33:59;;;;;;;;;;;24.50;52.20;;;;;;5026042;28;20273;-80
2022/07/20 00:36:24;;;;;;;;;;;24.40;52.40;;;;;;5024562;28;19913;-79
2022/07/20 00:38:50;;;;;;;;;;;24.30;52.70;;;;;;5019419;28;19996;-79
2022/07/20 00:41:15;;;;;;;;;;;24.20;53.00;;;;;;5022326;28;20440;-76
2022/07/20 00:43:57;;;;;;;;;;;24.20;53.10;;;;;;5026214;28;19913;-77
2022/07/20 00:46:33;;;;;;;;;;;24.10;53.00;;;;;;5026989;28;19939;-87
2022/07/20 00:48:58;;;;;;;;;;;24.00;53.30;;;;;;5021717;28;20149;-75
2022/07/20 00:51:27;;;;;;;;;;;24.00;53.20;;;;;;5024213;28;19943;-76
2022/07/20 00:53:53;;;;;;;;;;;24.00;53.50;;;;;;5026596;28;19919;-77
2022/07/20 00:56:19;;;;;;;;;;;24.00;53.10;;;;;;5022701;28;19909;-78
2022/07/20 00:58:45;;;;;;;;;;;24.20;53.10;;;;;;5036617;28;20310;-78
2022/07/20 01:01:11;;;;;;;;;;;24.10;53.00;;;;;;5029258;28;19913;-77
2022/07/20 01:03:37;;;;;;;;;;;24.10;53.20;;;;;;5003848;28;20356;-77
2022/07/20 01:06:02;;;;;;;;;;;24.10;53.10;;;;;;5023470;28;19919;-79
2022/07/20 01:08:28;;;;;;;;;;;24.10;53.00;;;;;;5026553;28;19932;-79
2022/07/20 01:10:54;;;;;;;;;;;24.10;53.00;;;;;;5024957;28;19916;-81
2022/07/20 01:13:19;;;;;;;;;;;24.10;53.20;;;;;;5024908;28;19916;-77
2022/07/20 01:15:45;;;;;;;;;;;24.00;53.40;;;;;;5030497;28;19917;-79
2022/07/20 01:18:11;;;;;;;;;;;23.90;53.50;;;;;;5033803;28;20327;-79
2022/07/20 01:20:38;;;;;;;;;;;23.90;53.70;;;;;;5015236;28;19938;-78
2022/07/20 01:23:04;;;;;;;;;;;23.80;53.60;;;;;;5035488;28;19909;-78
2022/07/20 01:25:33;;;;;;;;;;;23.80;53.90;;;;;;5033487;28;19913;-77
2022/07/20 01:27:59;;;;;;;;;;;23.80;53.80;;;;;;5027564;28;19905;-76
2022/07/20 01:30:24;;;;;;;;;;;23.90;54.10;;;;;;5033279;28;19908;-78
2022/07/20 01:32:49;;;;;;;;;;;23.80;53.90;;;;;;5021722;28;19914;-76
2022/07/20 01:35:15;;;;;;;;;;;23.70;54.20;;;;;;5023815;28;19912;-76
2022/07/20 01:37:40;;;;;;;;;;;23.60;54.10;;;;;;5025343;28;19999;-78
2022/07/20 01:40:06;;;;;;;;;;;23.60;54.50;;;;;;5025097;28;20402;-77
2022/07/20 01:42:31;;;;;;;;;;;23.50;54.70;;;;;;5026523;28;20367;-78
2022/07/20 01:44:57;;;;;;;;;;;23.50;54.80;;;;;;5028333;28;20045;-72
2022/07/20 01:47:22;;;;;;;;;;;23.30;55.00;;;;;;5032842;28;19960;-74
2022/07/20 01:49:48;;;;;;;;;;;23.20;55.30;;;;;;5025236;28;19912;-76
2022/07/20 01:52:13;;;;;;;;;;;23.20;55.80;;;;;;5025173;28;20240;-77
2022/07/20 01:54:39;;;;;;;;;;;23.10;55.60;;;;;;5006367;28;19909;-76
2022/07/20 01:57:04;;;;;;;;;;;23.10;55.60;;;;;;5021800;28;19913;-72
2022/07/20 01:59:30;;;;;;;;;;;23.00;56.00;;;;;;5024806;28;20758;-70
2022/07/20 02:01:55;;;;;;;;;;;23.00;55.90;;;;;;5023813;28;20430;-72
2022/07/20 02:04:20;;;;;;;;;;;23.00;55.90;;;;;;5025601;28;19936;-72
2022/07/20 02:06:46;;;;;;;;;;;22.90;56.40;;;;;;5024035;28;19920;-72
2022/07/20 02:09:11;;;;;;;;;;;22.90;56.20;;;;;;5025614;28;19921;-71
2022/07/20 02:11:37;;;;;;;;;;;22.80;56.30;;;;;;5023801;28;19916;-70
2022/07/20 02:14:02;;;;;;;;;;;22.80;56.50;;;;;;5025262;28;19967;-72
2022/07/20 02:16:27;;;;;;;;;;;22.80;56.30;;;;;;5023561;28;20469;-72
2022/07/20 02:18:55;;;;;;;;;;;22.80;56.70;;;;;;5025481;28;20439;-73
2022/07/20 02:21:21;;;;;;;;;;;22.80;56.80;;;;;;5023442;28;20346;-69
2022/07/20 02:23:47;;;;;;;;;;;22.70;56.70;;;;;;5025186;28;19913;-71
2022/07/20 02:26:12;;;;;;;;;;;22.70;56.70;;;;;;5023220;28;20121;-71
2022/07/20 02:28:38;;;;;;;;;;;22.70;56.90;;;;;;5025221;28;19986;-71
2022/07/20 02:31:04;;;;;;;;;;;22.90;56.30;;;;;;5023949;28;19962;-71
2022/07/20 02:33:29;;;;;;;;;;;23.00;56.30;;;;;;5025525;28;19917;-70
2022/07/20 02:35:55;;;;;;;;;;;22.90;56.20;;;;;;5023695;28;19962;-70
2022/07/20 02:38:20;;;;;;;;;;;22.80;56.40;;;;;;5024511;28;19909;-70
2022/07/20 02:40:46;;;;;;;;;;;23.00;56.10;;;;;;5024100;28;19917;-72
2022/07/20 02:43:11;;;;;;;;;;;23.20;55.90;;;;;;5025437;28;20023;-72
2022/07/20 02:45:37;;;;;;;;;;;23.20;55.80;;;;;;5023193;28;19913;-71
2022/07/20 02:48:02;;;;;;;;;;;23.10;56.00;;;;;;5025436;28;19909;-72
2022/07/20 02:50:36;;;;;;;;;;;22.90;56.70;;;;;;5022905;28;19913;-70
2022/07/20 02:53:02;;;;;;;;;;;22.90;57.50;;;;;;5024831;28;19956;-72
2022/07/20 02:55:28;;;;;;;;;;;22.80;56.70;;;;;;5022906;28;20000;-72
2022/07/20 02:57:54;;;;;;;;;;;22.80;56.80;;;;;;5025267;28;20012;-72
2022/07/20 03:00:19;;;;;;;;;;;22.80;56.90;;;;;;5023011;28;19913;-72
2022/07/20 03:02:45;;;;;;;;;;;22.70;57.30;;;;;;5029039;28;19917;-70
2022/07/20 03:05:11;;;;;;;;;;;22.70;57.40;;;;;;5026864;28;19931;-71
2022/07/20 03:07:36;;;;;;;;;;;22.70;57.80;;;;;;5029219;28;20363;-71
2022/07/20 03:10:02;;;;;;;;;;;22.70;57.70;;;;;;5028840;28;19936;-71
2022/07/20 03:12:28;;;;;;;;;;;22.70;57.70;;;;;;5017823;28;19917;-71
2022/07/20 03:14:53;;;;;;;;;;;22.70;57.90;;;;;;5028902;28;20004;-71
2022/07/20 03:17:18;;;;;;;;;;;22.70;57.70;;;;;;5013729;28;19913;-70
2022/07/20 03:19:45;;;;;;;;;;;22.80;57.90;;;;;;5028237;28;19960;-69
2022/07/20 03:22:10;;;;;;;;;;;22.80;57.70;;;;;;5027042;28;20101;-70
2022/07/20 03:24:37;;;;;;;;;;;22.80;58.00;;;;;;5028473;28;19917;-71
2022/07/20 03:27:03;;;;;;;;;;;22.80;58.00;;;;;;5014517;28;19909;-70
2022/07/20 03:29:28;;;;;;;;;;;22.80;58.10;;;;;;5028407;28;19913;-69
2022/07/20 03:31:54;;;;;;;;;;;22.80;58.20;;;;;;5026812;28;19917;-70
2022/07/20 03:34:19;;;;;;;;;;;22.70;58.20;;;;;;5028320;28;20360;-70
2022/07/20 03:36:45;;;;;;;;;;;22.70;58.20;;;;;;5026524;28;20171;-70
2022/07/20 03:39:11;;;;;;;;;;;22.70;58.50;;;;;;5028216;28;19956;-70
2022/07/20 03:41:36;;;;;;;;;;;22.70;58.60;;;;;;5026886;28;19920;-70
2022/07/20 03:44:02;;;;;;;;;;;22.60;58.60;;;;;;5028161;28;19912;-70
2022/07/20 03:46:27;;;;;;;;;;;22.60;58.80;;;;;;5026187;28;20360;-70
2022/07/20 03:48:53;;;;;;;;;;;22.60;58.90;;;;;;5028226;28;20021;-70
2022/07/20 03:51:19;;;;;;;;;;;22.60;59.10;;;;;;5026112;28;19924;-70
2022/07/20 03:53:44;;;;;;;;;;;22.60;59.40;;;;;;5028105;28;19913;-69
2022/07/20 03:56:09;;;;;;;;;;;22.50;59.50;;;;;;5025962;28;19920;-70
2022/07/20 03:58:35;;;;;;;;;;;22.50;59.50;;;;;;5028121;28;20371;-70
2022/07/20 04:01:00;;;;;;;;;;;22.50;59.80;;;;;;5026286;28;20289;-70
2022/07/20 04:03:26;;;;;;;;;;;22.50;60.10;;;;;;5028388;28;20422;-69
2022/07/20 04:05:51;;;;;;;;;;;22.50;60.00;;;;;;5026352;28;19913;-71
2022/07/20 04:08:16;;;;;;;;;;;22.50;60.10;;;;;;5027790;28;19921;-71
2022/07/20 04:10:42;;;;;;;;;;;22.50;60.10;;;;;;5025950;28;20006;-70
2022/07/20 04:13:07;;;;;;;;;;;22.60;60.50;;;;;;5027628;28;19916;-71
2022/07/20 04:15:33;;;;;;;;;;;22.60;60.50;;;;;;5026150;28;19909;-71
2022/07/20 04:17:58;;;;;;;;;;;22.60;60.20;;;;;;5028067;28;19905;-71
2022/07/20 04:20:24;;;;;;;;;;;22.60;60.60;;;;;;5025551;28;19913;-77
2022/07/20 04:22:49;;;;;;;;;;;22.60;60.60;;;;;;5027423;28;20016;-71
2022/07/20 04:25:15;;;;;;;;;;;22.60;60.60;;;;;;5028951;28;19920;-74
2022/07/20 04:27:42;;;;;;;;;;;22.70;60.90;;;;;;5026543;28;19912;-71
2022/07/20 04:30:07;;;;;;;;;;;22.60;61.10;;;;;;5027827;28;19952;-70
2022/07/20 04:32:33;;;;;;;;;;;22.70;60.50;;;;;;5025807;28;19917;-70
2022/07/20 04:34:58;;;;;;;;;;;22.70;60.50;;;;;;5027732;28;19909;-70
2022/07/20 04:37:23;;;;;;;;;;;22.80;60.20;;;;;;5025991;28;20322;-70
2022/07/20 04:39:49;;;;;;;;;;;22.80;60.50;;;;;;5027563;28;20437;-70
2022/07/20 04:42:14;;;;;;;;;;;22.80;60.30;;;;;;5025657;28;19967;-72
2022/07/20 04:44:40;;;;;;;;;;;22.80;60.50;;;;;;5027676;28;19913;-70
2022/07/20 04:47:05;;;;;;;;;;;22.80;60.50;;;;;;5025649;28;19913;-70
2022/07/20 04:49:31;;;;;;;;;;;22.80;60.60;;;;;;5027256;28;20435;-70
2022/07/20 04:51:56;;;;;;;;;;;22.90;60.60;;;;;;5025538;28;20378;-70
2022/07/20 04:54:22;;;;;;;;;;;23.00;60.40;;;;;;5027299;28;19917;-69
2022/07/20 04:56:48;;;;;;;;;;;23.00;60.50;;;;;;5025421;28;19912;-71
2022/07/20 04:59:13;;;;;;;;;;;23.10;60.50;;;;;;5027188;28;20244;-70
2022/07/20 05:01:39;;;;;;;;;;;23.10;60.10;;;;;;5025373;28;19959;-70
2022/07/20 05:04:04;;;;;;;;;;;23.20;59.60;;;;;;5026873;28;19913;-70
2022/07/20 05:06:30;;;;;;;;;;;23.30;60.00;;;;;;5025213;28;20041;-70
2022/07/20 05:08:55;;;;;;;;;;;23.30;59.70;;;;;;5026826;28;19925;-72
2022/07/20 05:11:21;;;;;;;;;;;23.40;59.60;;;;;;5024527;28;19917;-69
2022/07/20 05:13:46;;;;;;;;;;;23.50;59.50;;;;;;5027432;28;19916;-73
2022/07/20 05:16:12;;;;;;;;;;;23.50;58.00;;;;;;5024626;28;20394;-71
2022/07/20 05:18:37;;;;;;;;;;;23.60;58.00;;;;;;5026474;28;20264;-71
2022/07/20 05:21:03;;;;;;;;;;;23.70;58.40;;;;;;5024338;28;20252;-72
2022/07/20 05:23:28;;;;;;;;;;;23.80;58.30;;;;;;5025853;28;19971;-72
2022/07/20 05:25:54;;;;;;;;;;;23.90;58.00;;;;;;5018140;28;20344;-71
2022/07/20 05:28:22;;;;;;;;;;;24.00;57.80;;;;;;5012640;28;20374;-72
2022/07/20 05:30:48;;;;;;;;;;;24.00;57.40;;;;;;5024492;28;19909;-73
2022/07/20 05:33:14;;;;;;;;;;;24.00;57.60;;;;;;5027112;28;19912;-72
2022/07/20 05:35:40;;;;;;;;;;;24.00;57.40;;;;;;5024576;28;20000;-71
2022/07/20 05:38:05;;;;;;;;;;;24.20;58.10;;;;;;5027125;28;20257;-70
2022/07/20 05:40:31;;;;;;;;;;;24.30;57.80;;;;;;5026692;28;20043;-73
2022/07/20 05:42:56;;;;;;;;;;;24.30;57.60;;;;;;5024409;28;19913;-73
2022/07/20 05:45:22;;;;;;;;;;;24.50;57.50;;;;;;5026676;28;19912;-73
2022/07/20 05:47:47;;;;;;;;;;;24.70;57.00;;;;;;5024470;28;19909;-72
2022/07/20 05:50:13;;;;;;;;;;;24.90;57.60;;;;;;5025961;28;19909;-72
2022/07/20 05:52:38;;;;;;;;;;;24.70;57.60;;;;;;5024349;28;19917;-70
2022/07/20 05:55:04;;;;;;;;;;;24.70;56.30;;;;;;5026104;28;19913;-67
2022/07/20 05:57:29;;;;;;;;;;;24.80;56.70;;;;;;5024462;28;20046;-72
2022/07/20 05:59:55;;;;;;;;;;;24.90;56.40;;;;;;5026312;28;19909;-73
2022/07/20 06:02:20;;;;;;;;;;;25.00;56.20;;;;;;5024206;28;19916;-71
2022/07/20 06:04:45;;;;;;;;;;;25.10;56.20;;;;;;5026102;28;20394;-71
2022/07/20 06:07:11;;;;;;;;;;;25.40;56.20;;;;;;5013954;28;19920;-72
2022/07/20 06:09:36;;;;;;;;;;;25.60;55.30;;;;;;5025826;28;19913;-72
2022/07/20 06:12:02;;;;;;;;;;;25.40;55.50;;;;;;5012711;28;19956;-72
2022/07/20 06:14:27;;;;;;;;;;;25.50;56.30;;;;;;5024821;28;20452;-72
2022/07/20 06:16:53;;;;;;;;;;;25.90;55.00;;;;;;5022544;28;19909;-72
2022/07/20 06:19:18;;;;;;;;;;;25.70;55.10;;;;;;5025457;28;19920;-71
2022/07/20 06:21:44;;;;;;;;;;;26.10;55.80;;;;;;5025472;28;20323;-72
2022/07/20 06:24:09;;;;;;;;;;;25.80;55.30;;;;;;5026675;28;20434;-71
2022/07/20 06:26:35;;;;;;;;;;;25.90;55.30;;;;;;5024430;28;19919;-71
2022/07/20 06:29:00;;;;;;;;;;;26.00;54.60;;;;;;5024949;28;19956;-71
2022/07/20 06:31:26;;;;;;;;;;;26.00;54.60;;;;;;5023316;28;19970;-72
2022/07/20 06:33:52;;;;;;;;;;;26.00;54.90;;;;;;5025153;28;19905;-75
2022/07/20 06:36:18;;;;;;;;;;;26.10;54.70;;;;;;5023292;28;19927;-75
2022/07/20 06:38:44;;;;;;;;;;;26.10;55.00;;;;;;5025395;28;19905;-72
2022/07/20 06:41:10;;;;;;;;;;;26.40;55.20;;;;;;5023127;28;19919;-72
2022/07/20 06:43:35;;;;;;;;;;;26.20;54.60;;;;;;5025308;28;19913;-72
2022/07/20 06:46:00;;;;;;;;;;;26.20;55.10;;;;;;5023460;28;19913;-71
2022/07/20 06:48:26;;;;;;;;;;;26.40;55.10;;;;;;5025256;28;19909;-72
2022/07/20 06:50:51;;;;;;;;;;;26.70;55.20;;;;;;5023719;28;19913;-72
2022/07/20 06:53:17;;;;;;;;;;;26.90;54.00;;;;;;5025701;28;19909;-72
2022/07/20 06:55:43;;;;;;;;;;;27.10;54.80;;;;;;5025485;28;19987;-71
2022/07/20 06:58:08;;;;;;;;;;;27.40;54.30;;;;;;5023743;28;20388;-71
2022/07/20 07:00:34;;;;;;;;;;;27.70;53.10;;;;;;5025070;28;19920;-71
2022/07/20 07:02:59;;;;;;;;;;;27.90;51.60;;;;;;5023656;28;19913;-72
2022/07/20 07:05:25;;;;;;;;;;;27.60;51.20;;;;;;5025300;28;19916;-71
2022/07/20 07:07:50;;;;;;;;;;;27.90;51.30;;;;;;5023475;28;20028;-72
2022/07/20 07:10:16;;;;;;;;;;;27.90;52.20;;;;;;5024864;28;20004;-71
2022/07/20 07:12:41;;;;;;;;;;;28.20;51.90;;;;;;5023269;28;19917;-73
2022/07/20 07:15:07;;;;;;;;;;;28.20;49.80;;;;;;5024167;28;19913;-72
2022/07/20 07:17:33;;;;;;;;;;;28.00;49.80;;;;;;5023172;28;19913;-74
2022/07/20 07:19:59;;;;;;;;;;;28.10;50.40;;;;;;5025894;28;19913;-72
2022/07/20 07:22:27;;;;;;;;;;;28.30;49.90;;;;;;5023065;28;19916;-72
2022/07/20 07:24:53;;;;;;;;;;;28.50;50.50;;;;;;5026736;28;20403;-71
2022/07/20 07:27:19;;;;;;;;;;;28.40;49.60;;;;;;5023415;28;20107;-71
2022/07/20 07:29:44;;;;;;;;;;;28.30;49.50;;;;;;5025571;28;19913;-72
2022/07/20 07:32:10;;;;;;;;;;;28.70;50.70;;;;;;5022692;28;19917;-71
2022/07/20 07:34:35;;;;;;;;;;;29.10;49.60;;;;;;5025067;28;20439;-71
2022/07/20 07:37:01;;;;;;;;;;;29.40;48.70;;;;;;5022853;28;19913;-72
2022/07/20 07:39:26;;;;;;;;;;;29.50;48.70;;;;;;5024615;28;20454;-72
2022/07/20 07:41:51;;;;;;;;;;;29.60;48.20;;;;;;5022371;28;20003;-71
2022/07/20 07:44:17;;;;;;;;;;;29.50;47.70;;;;;;5025212;28;19913;-71
2022/07/20 07:46:42;;;;;;;;;;;29.50;47.90;;;;;;5023021;28;20303;-72
2022/07/20 07:49:08;;;;;;;;;;;29.50;47.90;;;;;;5028321;28;19909;-71
2022/07/20 07:51:33;;;;;;;;;;;29.70;47.70;;;;;;5026537;28;19986;-71
2022/07/20 07:53:59;;;;;;;;;;;29.50;48.10;;;;;;5028554;28;20004;-72
2022/07/20 07:56:24;;;;;;;;;;;29.80;47.10;;;;;;5026247;28;19920;-72
2022/07/20 07:58:50;;;;;;;;;;;29.90;47.20;;;;;;5029114;28;19916;-71
2022/07/20 08:01:15;;;;;;;;;;;30.10;47.60;;;;;;5026673;28;19995;-73
2022/07/20 08:03:41;;;;;;;;;;;30.20;46.70;;;;;;5029732;28;19905;-73
2022/07/20 08:06:06;;;;;;;;;;;30.40;47.20;;;;;;5026272;28;19995;-72
2022/07/20 08:08:32;;;;;;;;;;;30.20;46.90;;;;;;5028437;28;19917;-72
2022/07/20 08:10:57;;;;;;;;;;;30.10;46.90;;;;;;5027969;28;20092;-72
2022/07/20 08:13:23;;;;;;;;;;;30.20;46.90;;;;;;5025719;28;20081;-74
2022/07/20 08:15:48;;;;;;;;;;;30.40;46.80;;;;;;5027314;28;19908;-70
2022/07/20 08:18:14;;;;;;;;;;;30.70;46.80;;;;;;5025910;28;19913;-73
2022/07/20 08:20:39;;;;;;;;;;;30.70;46.20;;;;;;5027658;28;20674;-72
2022/07/20 08:23:05;;;;;;;;;;;30.60;46.20;;;;;;5030218;28;20548;-73
2022/07/20 08:25:30;;;;;;;;;;;30.90;46.30;;;;;;5017628;28;19917;-72
2022/07/20 08:28:07;;;;;;;;;;;31.00;45.90;;;;;;5033517;28;20378;-73
2022/07/20 08:30:32;;;;;;;;;;;31.10;45.60;;;;;;5035738;28;19913;-73
2022/07/20 08:32:58;;;;;;;;;;;31.40;45.80;;;;;;5031032;28;19965;-73
2022/07/20 08:35:23;;;;;;;;;;;31.40;44.90;;;;;;5026180;28;19998;-79
2022/07/20 08:37:48;;;;;;;;;;;31.40;45.00;;;;;;5026276;28;20007;-77
2022/07/20 08:40:14;;;;;;;;;;;31.20;45.00;;;;;;5024177;28;19910;-76
2022/07/20 08:42:40;;;;;;;;;;;31.20;44.70;;;;;;5024493;28;19917;-76
2022/07/20 08:45:06;;;;;;;;;;;31.10;45.40;;;;;;5026125;28;19913;-77
2022/07/20 08:47:32;;;;;;;;;;;31.30;44.30;;;;;;5018816;28;20386;-77
2022/07/20 08:49:58;;;;;;;;;;;31.50;45.00;;;;;;5027859;28;20140;-86
2022/07/20 08:52:23;;;;;;;;;;;31.50;45.40;;;;;;5024168;28;19921;-76
2022/07/20 08:54:49;;;;;;;;;;;31.60;44.70;;;;;;5028168;28;19940;-76
2022/07/20 08:57:15;;;;;;;;;;;31.70;52.00;;;;;;5025945;28;19963;-77
2022/07/20 08:59:44;;;;;;;;;;;31.80;43.90;;;;;;5025598;28;19913;-79
2022/07/20 09:02:10;;;;;;;;;;;31.70;43.80;;;;;;5023075;28;19956;-79
2022/07/20 09:04:52;;;;;;;;;;;31.90;47.80;;;;;;5026940;28;20173;-81
2022/07/20 09:07:18;;;;;;;;;;;32.00;43.00;;;;;;5021040;28;20018;-75
2022/07/20 09:09:44;;;;;;;;;;;32.20;45.10;;;;;;5027172;28;19952;-80
2022/07/20 09:12:10;;;;;;;;;;;32.50;43.30;;;;;;5025044;28;19968;-81
2022/07/20 09:14:47;;;;;;;;;;;32.40;43.30;;;;;;5027530;28;19912;-78
2022/07/20 09:17:20;;;;;;;;;;;32.40;42.00;;;;;;5014406;28;20398;-76
2022/07/20 09:20:08;;;;;;;;;;;32.40;43.80;;;;;;5026901;28;19909;-79
2022/07/20 09:22:35;;;;;;;;;;;32.40;41.90;;;;;;5015039;28;19952;-79
2022/07/20 09:25:04;;;;;;;;;;;32.60;41.30;;;;;;5027710;28;20256;-80
2022/07/20 09:27:32;;;;;;;;;;;32.80;41.40;;;;;;5024267;28;19968;-81
2022/07/20 09:30:10;;;;;;;;;;;32.80;42.40;;;;;;5024875;28;20219;-79
2022/07/20 09:32:54;;;;;;;;;;;33.00;41.50;;;;;;5014869;28;20341;-80
2022/07/20 09:35:21;;;;;;;;;;;33.20;41.50;;;;;;5007494;28;19913;-81
2022/07/20 09:37:46;;;;;;;;;;;33.30;39.30;;;;;;5021790;28;19909;-82
2022/07/20 09:40:12;;;;;;;;;;;33.50;39.90;;;;;;5026179;28;19916;-82
2022/07/20 09:42:40;;;;;;;;;;;33.60;38.80;;;;;;5021713;28;19999;-86
2022/07/20 09:45:22;;;;;;;;;;;33.90;38.40;;;;;;5025731;28;20016;-80
2022/07/20 09:48:01;;;;;;;;;;;34.10;38.10;;;;;;5023103;28;20017;-78
2022/07/20 09:50:29;;;;;;;;;;;34.40;37.40;;;;;;5024692;28;19913;-81
2022/07/20 09:52:54;;;;;;;;;;;34.70;37.20;;;;;;5019810;28;19975;-80
2022/07/20 09:55:20;;;;;;;;;;;34.60;37.00;;;;;;5024290;28;19952;-81
2022/07/20 09:57:46;;;;;;;;;;;34.80;37.50;;;;;;5022926;28;20379;-82
2022/07/20 10:00:12;;;;;;;;;;;35.00;36.50;;;;;;5025813;28;20488;-81
2022/07/20 10:02:37;;;;;;;;;;;35.10;36.20;;;;;;5020678;28;20426;-87
2022/07/20 10:05:03;;;;;;;;;;;35.30;36.10;;;;;;5002404;28;19917;-78
2022/07/20 10:07:29;;;;;;;;;;;35.10;33.60;;;;;;5022942;28;20393;-78
2022/07/20 10:09:55;;;;;;;;;;;35.20;35.00;;;;;;5024362;28;19916;-78
2022/07/20 10:12:21;;;;;;;;;;;35.30;35.60;;;;;;5013923;28;20027;-83
2022/07/20 10:14:49;;;;;;;;;;;35.50;34.50;;;;;;4996752;28;20356;-79
2022/07/20 10:17:15;;;;;;;;;;;35.50;34.40;;;;;;5023830;28;20387;-79
2022/07/20 10:19:42;;;;;;;;;;;35.60;34.00;;;;;;5026516;28;20282;-81
2022/07/20 10:22:08;;;;;;;;;;;35.80;33.70;;;;;;5023667;28;19913;-81
2022/07/20 10:24:35;;;;;;;;;;;36.00;33.30;;;;;;5026628;28;19913;-81
2022/07/20 10:27:16;;;;;;;;;;;36.40;33.70;;;;;;5023860;28;19913;-85
2022/07/20 10:29:46;;;;;;;;;;;36.50;33.20;;;;;;5022112;28;19992;-79
2022/07/20 10:32:29;;;;;;;;;;;36.50;32.10;;;;;;5023450;28;20015;-78
2022/07/20 10:34:59;;;;;;;;;;;36.40;32.10;;;;;;5023085;28;19908;-78
2022/07/20 10:37:26;;;;;;;;;;;36.30;31.70;;;;;;5023265;28;20495;-78
2022/07/20 10:40:12;;;;;;;;;;;36.30;32.20;;;;;;5025473;28;20010;-85
2022/07/20 10:42:38;;;;;;;;;;;36.60;32.40;;;;;;5018847;28;19913;-79
2022/07/20 10:45:13;;;;;;;;;;;36.80;32.10;;;;;;5024773;28;19913;-78
2022/07/20 10:47:42;;;;;;;;;;;36.90;31.70;;;;;;5022537;28;19909;-83
2022/07/20 10:50:07;;;;;;;;;;;36.90;31.20;;;;;;5025271;28;19955;-82
2022/07/20 10:52:33;;;;;;;;;;;36.80;31.60;;;;;;5023104;28;19912;-79
2022/07/20 10:54:59;;;;;;;;;;;36.80;31.60;;;;;;5025252;28;20622;-81
2022/07/20 10:57:25;;;;;;;;;;;36.90;31.50;;;;;;5023172;28;19913;-83
2022/07/20 11:00:01;;;;;;;;;;;37.00;30.90;;;;;;5022874;28;19916;-82
2022/07/20 11:02:26;;;;;;;;;;;36.90;30.50;;;;;;5018279;28;19917;-79
2022/07/20 11:04:52;;;;;;;;;;;37.20;31.70;;;;;;5025600;28;19916;-84
2022/07/20 11:07:29;;;;;;;;;;;37.20;30.00;;;;;;5023581;28;19913;-83
2022/07/20 11:09:55;;;;;;;;;;;37.20;29.40;;;;;;5023312;28;19916;-82
2022/07/20 11:12:24;;;;;;;;;;;37.30;29.20;;;;;;5023821;28;19980;-84
2022/07/20 11:14:51;;;;;;;;;;;37.40;29.20;;;;;;5030608;28;19909;-83
2022/07/20 11:17:17;;;;;;;;;;;37.90;30.00;;;;;;5022671;28;19972;-81
2022/07/20 11:19:42;;;;;;;;;;;38.40;29.30;;;;;;5025244;28;20375;-86
2022/07/20 11:22:08;;;;;;;;;;;38.60;28.70;;;;;;5025390;28;20283;-82
2022/07/20 11:24:34;;;;;;;;;;;38.70;29.30;;;;;;5023280;28;19908;-81
2022/07/20 11:27:12;;;;;;;;;;;39.10;29.30;;;;;;5026590;28;20371;-81
2022/07/20 11:29:44;;;;;;;;;;;39.30;28.30;;;;;;5029149;28;19999;-83
2022/07/20 11:32:10;;;;;;;;;;;39.30;28.70;;;;;;5026694;28;19924;-83
2022/07/20 11:34:42;;;;;;;;;;;39.50;28.90;;;;;;5029240;28;20280;-82
2022/07/20 11:37:08;;;;;;;;;;;39.90;29.90;;;;;;5027073;28;19913;-82
2022/07/20 11:39:33;;;;;;;;;;;39.80;28.60;;;;;;5028851;28;19962;-83
2022/07/20 11:41:58;;;;;;;;;;;40.00;28.80;;;;;;5027013;28;20015;-85
2022/07/20 11:44:27;;;;;;;;;;;40.30;29.10;;;;;;5041116;28;19909;-86
2022/07/20 11:46:53;;;;;;;;;;;40.60;27.70;;;;;;5024311;28;19913;-83
2022/07/20 11:49:19;;;;;;;;;;;40.00;28.10;;;;;;5045229;28;19900;-88
2022/07/20 11:52:05;;;;;;;;;;;40.30;27.60;;;;;;5031109;28;19919;-82
2022/07/20 11:54:33;;;;;;;;;;;40.40;27.70;;;;;;5027559;28;19913;-83
2022/07/20 11:56:59;;;;;;;;;;;40.60;27.50;;;;;;5047585;28;19908;-86
2022/07/20 11:59:24;;;;;;;;;;;40.70;27.70;;;;;;5033786;28;20340;-85
2022/07/20 12:01:53;;;;;;;;;;;41.20;27.40;;;;;;5034199;28;19917;-85
2022/07/20 12:04:19;;;;;;;;;;;41.60;27.70;;;;;;5025111;28;20286;-81
2022/07/20 12:06:44;;;;;;;;;;;42.10;26.90;;;;;;5025938;28;19912;-82
2022/07/20 12:09:17;;;;;;;;;;;42.60;26.10;;;;;;5025777;28;20402;-88
2022/07/20 12:11:59;;;;;;;;;;;43.10;26.30;;;;;;5027310;28;19917;-86
2022/07/20 12:14:25;;;;;;;;;;;43.80;26.10;;;;;;5021373;28;19912;-79
2022/07/20 12:16:51;;;;;;;;;;;44.00;24.70;;;;;;5023963;28;19999;-88
2022/07/20 12:19:17;;;;;;;;;;;44.40;24.70;;;;;;5015087;28;19948;-88
2022/07/20 12:21:43;;;;;;;;;;;44.70;24.30;;;;;;5028770;28;19912;-86
2022/07/20 12:24:09;;;;;;;;;;;44.80;24.00;;;;;;5027714;28;19913;-86
2022/07/20 12:26:35;;;;;;;;;;;45.20;24.70;;;;;;5028027;28;19967;-87
2022/07/20 12:29:21;;;;;;;;;;;45.70;24.10;;;;;;5024054;28;19919;-87
2022/07/20 12:31:59;;;;;;;;;;;46.20;23.80;;;;;;5028059;28;20308;-86
2022/07/20 12:34:25;;;;;;;;;;;46.10;23.80;;;;;;5028115;28;19927;-86
2022/07/20 12:36:50;;;;;;;;;;;45.90;23.40;;;;;;5028177;28;19909;-86
2022/07/20 12:39:36;;;;;;;;;;;46.40;23.60;;;;;;5026318;28;20050;-86
2022/07/20 12:42:15;;;;;;;;;;;46.00;23.40;;;;;;5027184;28;19970;-87
2022/07/20 12:44:46;;;;;;;;;;;45.40;23.80;;;;;;5012573;28;20316;-87
2022/07/20 12:47:12;;;;;;;;;;;44.40;24.20;;;;;;5015014;28;20023;-86
2022/07/20 12:49:38;;;;;;;;;;;44.50;24.60;;;;;;5027616;28;19955;-86
2022/07/20 12:52:03;;;;;;;;;;;45.50;24.20;;;;;;5027033;28;19967;-85
2022/07/20 12:54:29;;;;;;;;;;;46.00;23.90;;;;;;5019054;28;20037;-84
2022/07/20 12:56:54;;;;;;;;;;;46.40;23.80;;;;;;5006649;28;19936;-86
2022/07/20 12:59:20;;;;;;;;;;;46.80;23.50;;;;;;5025519;28;19958;-85
2022/07/20 13:01:48;;;;;;;;;;;46.80;23.90;;;;;;5027969;28;19919;-85
2022/07/20 13:04:15;;;;;;;;;;;47.50;23.30;;;;;;5026893;28;20452;-85
2022/07/20 13:06:40;;;;;;;;;;;47.70;22.60;;;;;;5034807;28;20012;-87
2022/07/20 13:09:06;;;;;;;;;;;47.60;23.20;;;;;;5033274;28;20088;-85
2022/07/20 13:11:31;;;;;;;;;;;47.20;22.80;;;;;;5028434;28;19916;-86
2022/07/20 13:13:57;;;;;;;;;;;47.60;23.10;;;;;;5025862;28;19913;-86
2022/07/20 13:16:22;;;;;;;;;;;47.40;22.50;;;;;;5026686;28;19971;-86
2022/07/20 13:18:48;;;;;;;;;;;47.70;22.50;;;;;;5025935;28;19913;-86
2022/07/20 13:21:13;;;;;;;;;;;47.50;22.20;;;;;;5028234;28;19944;-85
2022/07/20 13:23:39;;;;;;;;;;;47.60;22.60;;;;;;5007935;28;19935;-86
2022/07/20 13:26:04;;;;;;;;;;;47.30;22.30;;;;;;5027148;28;19978;-86
2022/07/20 13:28:30;;;;;;;;;;;47.70;22.10;;;;;;5025484;28;19939;-86
2022/07/20 13:30:55;;;;;;;;;;;48.40;21.90;;;;;;5027653;28;19913;-86
2022/07/20 13:33:21;;;;;;;;;;;48.40;20.70;;;;;;5025581;28;20450;-85
2022/07/20 13:35:46;;;;;;;;;;;48.00;20.70;;;;;;5026885;28;19967;-85
2022/07/20 13:38:12;;;;;;;;;;;48.20;20.50;;;;;;5025008;28;20026;-86
2022/07/20 13:40:37;;;;;;;;;;;47.30;20.80;;;;;;5009310;28;19909;-86
2022/07/20 13:43:06;;;;;;;;;;;45.80;21.40;;;;;;5025840;28;19945;-85
2022/07/20 13:45:31;;;;;;;;;;;45.70;21.60;;;;;;5026649;28;20411;-85
2022/07/20 13:47:57;;;;;;;;;;;46.10;21.50;;;;;;5024800;28;20036;-87
2022/07/20 13:50:22;;;;;;;;;;;46.90;21.40;;;;;;5005728;28;19909;-90
2022/07/20 13:52:48;;;;;;;;;;;47.90;20.80;;;;;;5024204;28;19917;-85
2022/07/20 13:55:13;;;;;;;;;;;48.20;20.40;;;;;;5027065;28;19943;-86
2022/07/20 13:57:39;;;;;;;;;;;48.30;20.80;;;;;;5004907;28;19919;-87
2022/07/20 14:00:05;;;;;;;;;;;48.10;21.10;;;;;;5026469;28;19940;-86
2022/07/20 14:02:31;;;;;;;;;;;47.20;20.70;;;;;;5019586;28;20465;-85
2022/07/20 14:04:56;;;;;;;;;;;45.80;21.30;;;;;;5029237;28;19944;-90
2022/07/20 14:07:24;;;;;;;;;;;45.00;22.10;;;;;;5026282;28;19951;-86
2022/07/20 14:09:50;;;;;;;;;;;45.10;22.90;;;;;;5027878;28;20332;-90
2022/07/20 14:12:15;;;;;;;;;;;45.60;22.50;;;;;;5007735;28;20399;-86
2022/07/20 14:14:41;;;;;;;;;;;46.30;22.30;;;;;;5006060;28;20525;-85
2022/07/20 14:17:06;;;;;;;;;;;46.30;21.80;;;;;;5024394;28;19917;-87